Airfield :
LOGIN :

Register | Disclaimer

   EN    FR    IT 

 










Legend :    VFR   Marginal VFR   IFR   Intensive IFR   Very Intensive IFR
Visi :
Ceiling :
>= 8 km
>= 3000ft
5 to 8 km
1000 to 3000 ft
1500m to 5 km
500 to 1000 ft
800 to 1500m
200 to 500 ft
< 800m
< 200 ft
Symbols :   Thunderstorms  Fog  Heavy snow  Heavy precipitations  Wind > 20 kt
SIGMETs :     Misc.  Thunderstorms  Icing  Turbulence  Mountain Waves  Volcanic Ashes






- Airport Elevation : 146 ft
- IATA code : RKE


EKRK - Roskilde Tune

CURRENT METAR :
  • 280020Z AUTO 27016KT 9999 BKN030/// 09/05 Q1005

EXPIRED METARs :
  • 272350Z AUTO 27013G23KT 9999 -RA BKN029/// 09/05 Q1005
  • 272320Z AUTO 28013KT 9999 SCT051/// 08/05 Q1005
  • 272250Z AUTO 27013KT 9999 FEW055/// 08/05 Q1006
  • 272220Z AUTO 27013KT 9999 FEW035/// SCT053/// 08/05 Q1006
  • 272150Z AUTO 27013KT 9999 FEW025/// FEW033/// SCT044/// SCT050/// 08/05 Q1006

TAF TAF EKRK
Valid from the 28 at 00:00 until the 28 at 09:00 UTC


272337Z 2800/2809 27015KT 9999 SCT030
TEMPO 2800/2806 29018G30KT 4000 SHRA BKN012 BKN020CB
PROB40
TEMPO 2800/2806 TSRAGS
TEMPO 2806/2809 30015G25KT SCT020TCU



MET'MAP, your aeronautical weather chart ! - Copyright ORBIFLY December 2007 - Disclaimer

ORBIFLY MET'MAP TEAM :

Programming & Development : Alexandra Zaïnal
Original concept : Baudouin d'Aumeries
Technical & hardware support : Manuel Goepfert
Assistance : Marc-Olivier Méhu

Contact : metmap@orbifly.com




SOURCES & CREDITS :

   NOAA